Time;durP1;ratioP1;P1;durP2;ratioP2;P2;SDS_P1;SDS_P2;PMS_P1;PMS_P2;Temp;Humidity;BMP_temperature;BMP_pressure;BME280_temperature;BME280_humidity;BME280_pressure;Samples;Min_cycle;Max_cycle;Signal;HPM_P1;HPM_P2
2022/12/04 00:01:19;;;;;;;69.17;29.90;;;0.00;99.90;;;;;;6184470;23;20382;-46
2022/12/04 00:03:45;;;;;;;79.70;30.10;;;0.00;99.90;;;;;;6184285;23;20156;-45
2022/12/04 00:06:17;;;;;;;73.63;29.87;;;0.00;99.90;;;;;;6184358;23;20401;-46
2022/12/04 00:08:44;;;;;;;70.10;29.90;;;0.10;99.90;;;;;;6184278;23;20166;-45
2022/12/04 00:11:11;;;;;;;80.53;30.63;;;0.00;95.10;;;;;;6184419;23;20374;-45
2022/12/04 00:13:38;;;;;;;75.53;29.87;;;0.10;84.70;;;;;;6184321;23;20414;-46
2022/12/04 00:16:10;;;;;;;64.73;28.37;;;0.00;77.90;;;;;;6184398;23;20711;-46
2022/12/04 00:18:36;;;;;;;75.73;29.87;;;0.10;82.50;;;;;;6183834;23;20363;-46
2022/12/04 00:21:04;;;;;;;74.03;30.40;;;0.00;77.70;;;;;;6184172;23;20386;-46
2022/12/04 00:23:30;;;;;;;70.10;29.73;;;0.00;93.70;;;;;;6184020;23;20746;-46
2022/12/04 00:26:00;;;;;;;76.37;28.33;;;0.10;99.90;;;;;;6183972;23;20464;-46
2022/12/04 00:28:26;;;;;;;66.07;28.10;;;0.10;94.70;;;;;;6184061;23;20497;-46
2022/12/04 00:30:52;;;;;;;68.53;28.33;;;0.10;72.30;;;;;;6184062;23;20509;-46
2022/12/04 00:33:17;;;;;;;66.97;29.37;;;0.10;74.20;;;;;;6184298;23;20177;-45
2022/12/04 00:35:43;;;;;;;67.40;28.30;;;0.20;85.50;;;;;;6184402;23;20569;-47
2022/12/04 00:38:08;;;;;;;72.10;28.50;;;0.10;91.10;;;;;;6184520;23;20217;-46
2022/12/04 00:40:34;;;;;;;64.47;28.73;;;0.10;99.10;;;;;;6184234;23;20293;-46
2022/12/04 00:43:00;;;;;;;68.13;28.43;;;0.10;99.90;;;;;;6184770;23;20168;-45
2022/12/04 00:45:25;;;;;;;69.10;27.20;;;0.00;99.90;;;;;;6184413;23;20194;-45
2022/12/04 00:47:51;;;;;;;58.23;26.60;;;0.00;99.90;;;;;;6184173;23;20605;-46
2022/12/04 00:50:16;;;;;;;65.80;27.20;;;0.10;99.90;;;;;;6157479;23;20182;-46
2022/12/04 00:52:42;;;;;;;62.17;27.37;;;0.00;99.90;;;;;;6184421;23;20144;-45
2022/12/04 00:55:08;;;;;;;66.83;28.90;;;0.10;99.90;;;;;;6184337;23;20706;-46
2022/12/04 00:57:34;;;;;;;65.03;29.07;;;0.10;99.90;;;;;;6184204;23;20155;-46
2022/12/04 00:59:59;;;;;;;64.73;27.50;;;0.10;99.90;;;;;;6158012;23;20381;-46
2022/12/04 01:02:25;;;;;;;65.03;26.70;;;0.10;99.90;;;;;;6157221;23;20167;-45
2022/12/04 01:04:50;;;;;;;65.57;28.20;;;0.10;83.60;;;;;;6158018;23;20190;-46
2022/12/04 01:07:16;;;;;;;62.83;26.67;;;0.10;90.30;;;;;;6184274;23;20475;-46
2022/12/04 01:09:41;;;;;;;56.47;25.40;;;0.10;96.80;;;;;;6176927;23;20175;-45
2022/12/04 01:12:07;;;;;;;63.43;26.70;;;0.10;97.60;;;;;;6184318;23;20169;-46
2022/12/04 01:14:32;;;;;;;60.70;25.97;;;0.10;99.90;;;;;;6183857;23;20143;-46
2022/12/04 01:16:58;;;;;;;68.50;27.80;;;0.10;99.00;;;;;;6183759;23;20214;-45
2022/12/04 01:19:24;;;;;;;60.43;27.00;;;0.10;99.90;;;;;;6184333;23;20150;-46
2022/12/04 01:21:49;;;;;;;64.33;27.10;;;0.10;99.90;;;;;;6184190;23;20162;-46
2022/12/04 01:24:15;;;;;;;59.97;26.33;;;0.10;99.90;;;;;;6157405;23;20155;-46
2022/12/04 01:26:41;;;;;;;63.80;27.50;;;0.10;99.90;;;;;;6183903;23;20158;-46
2022/12/04 01:29:06;;;;;;;56.07;25.17;;;0.10;99.90;;;;;;6183625;23;20183;-46
2022/12/04 01:31:32;;;;;;;59.63;26.20;;;0.10;99.90;;;;;;6183368;23;20566;-45
2022/12/04 01:33:58;;;;;;;60.20;26.57;;;0.20;99.90;;;;;;6183559;23;20238;-46
2022/12/04 01:36:26;;;;;;;60.07;28.03;;;0.20;99.90;;;;;;6183671;23;20147;-46
2022/12/04 01:38:51;;;;;;;60.43;25.90;;;0.20;99.90;;;;;;6183005;23;20187;-47
2022/12/04 01:41:20;;;;;;;60.47;27.37;;;0.20;99.90;;;;;;6182163;23;20382;-46
2022/12/04 01:44:13;;;;;;;63.43;26.97;;;0.20;99.90;;;;;;6182749;23;20147;-46
2022/12/04 01:46:39;;;;;;;64.73;27.03;;;0.20;99.90;;;;;;6182208;23;20374;-46
2022/12/04 01:49:14;;;;;;;62.67;25.90;;;0.20;99.90;;;;;;6182569;23;20453;-45
2022/12/04 01:51:44;;;;;;;59.70;26.10;;;0.20;99.90;;;;;;6183251;23;20460;-46
2022/12/04 01:54:16;;;;;;;63.33;27.27;;;0.20;99.90;;;;;;6182537;23;20398;-46
2022/12/04 01:56:51;;;;;;;66.53;28.40;;;0.30;99.90;;;;;;6182009;23;20378;-45
2022/12/04 01:59:20;;;;;;;62.70;27.00;;;0.20;99.90;;;;;;6183147;23;20400;-45
2022/12/04 02:01:54;;;;;;;66.57;28.30;;;0.20;99.90;;;;;;6182526;23;20374;-45
2022/12/04 02:04:20;;;;;;;65.70;26.17;;;0.20;99.90;;;;;;6182381;23;20370;-46
2022/12/04 02:06:46;;;;;;;64.90;27.27;;;0.20;99.90;;;;;;6182186;23;20437;-46
2022/12/04 02:09:12;;;;;;;76.13;29.30;;;0.20;99.90;;;;;;6181783;23;20502;-43
2022/12/04 02:11:45;;;;;;;67.30;27.83;;;0.30;99.90;;;;;;6181998;23;20234;-46
2022/12/04 02:14:13;;;;;;;64.10;26.93;;;0.20;99.90;;;;;;6182456;23;20229;-46
2022/12/04 02:16:39;;;;;;;63.53;27.07;;;0.30;99.90;;;;;;6182383;23;20358;-46
2022/12/04 02:19:10;;;;;;;68.73;27.43;;;0.30;99.90;;;;;;6156213;23;20397;-46
2022/12/04 02:21:39;;;;;;;64.10;27.93;;;0.30;99.90;;;;;;6182371;23;20166;-46
2022/12/04 02:24:10;;;;;;;68.27;26.77;;;0.30;99.90;;;;;;6182071;23;20465;-46
2022/12/04 02:26:49;;;;;;;66.77;27.00;;;0.20;99.90;;;;;;6181765;23;20429;-46
2022/12/04 02:29:46;;;;;;;66.87;27.17;;;0.20;99.90;;;;;;6182088;23;20417;-46
2022/12/04 02:32:39;;;;;;;61.63;26.80;;;0.30;99.90;;;;;;6182573;23;20840;-46
2022/12/04 02:35:05;;;;;;;60.80;26.47;;;0.20;99.90;;;;;;6182496;23;20379;-46
2022/12/04 02:37:37;;;;;;;66.00;27.97;;;0.30;99.90;;;;;;6182533;23;20440;-46
2022/12/04 02:40:13;;;;;;;60.00;24.90;;;0.30;99.90;;;;;;6137011;23;1074890;-46
2022/12/04 02:42:48;;;;;;;60.83;26.50;;;0.30;99.90;;;;;;6183553;23;20182;-46
2022/12/04 02:45:20;;;;;;;61.20;27.23;;;0.30;99.90;;;;;;6183468;23;20397;-46
2022/12/04 02:47:46;;;;;;;65.13;26.30;;;0.30;99.90;;;;;;6182842;23;20433;-45
2022/12/04 02:50:16;;;;;;;65.53;25.20;;;0.30;99.90;;;;;;6183318;23;20414;-46
2022/12/04 02:52:46;;;;;;;62.03;26.83;;;0.30;99.90;;;;;;6183374;23;20385;-46
2022/12/04 02:55:29;;;;;;;59.23;26.47;;;0.40;99.90;;;;;;6183822;23;20373;-46
2022/12/04 02:58:01;;;;;;;63.37;27.23;;;0.40;99.90;;;;;;6176538;23;21081;-46
2022/12/04 03:00:29;;;;;;;65.53;26.40;;;0.30;99.90;;;;;;6183343;23;20457;-47
2022/12/04 03:03:00;;;;;;;63.83;27.83;;;0.30;99.90;;;;;;6182915;23;20390;-46
2022/12/04 03:05:39;;;;;;;69.50;27.47;;;0.30;99.90;;;;;;6183407;23;20409;-45
2022/12/04 03:08:09;;;;;;;66.60;26.70;;;0.40;99.90;;;;;;6183566;23;20366;-46
2022/12/04 03:10:42;;;;;;;64.93;27.30;;;0.30;99.90;;;;;;6183299;23;20484;-46
2022/12/04 03:13:17;;;;;;;61.50;26.43;;;0.40;99.90;;;;;;6183311;23;20369;-46
2022/12/04 03:16:09;;;;;;;61.63;25.70;;;0.40;99.90;;;;;;6183588;23;20374;-46
2022/12/04 03:18:49;;;;;;;66.73;26.10;;;0.40;99.90;;;;;;6183735;23;20417;-46
2022/12/04 03:21:22;;;;;;;62.00;25.33;;;0.40;99.90;;;;;;6185141;23;20445;-46
2022/12/04 03:24:09;;;;;;;66.47;27.87;;;0.40;99.90;;;;;;6184714;23;20797;-46
2022/12/04 03:26:46;;;;;;;66.20;25.70;;;0.50;1.00;;;;;;6185079;23;20374;-45
2022/12/04 03:29:39;;;;;;;64.73;26.83;;;0.50;99.90;;;;;;6184918;23;20423;-46
2022/12/04 03:32:12;;;;;;;62.93;25.30;;;0.50;1.00;;;;;;6185166;23;20692;-46
2022/12/04 03:34:56;;;;;;;58.63;25.27;;;0.50;99.90;;;;;;6158830;23;20401;-46
2022/12/04 03:37:48;;;;;;;66.57;27.33;;;0.40;99.90;;;;;;6185411;23;20375;-45
2022/12/04 03:40:27;;;;;;;60.67;26.10;;;0.40;99.90;;;;;;6185036;23;20444;-46
2022/12/04 03:43:15;;;;;;;62.30;26.67;;;0.40;1.00;;;;;;6185094;23;20437;-45
2022/12/04 03:45:52;;;;;;;59.73;26.30;;;0.40;1.00;;;;;;6184851;23;20371;-46
2022/12/04 03:48:27;;;;;;;65.30;27.13;;;0.50;1.00;;;;;;6184604;23;20370;-46
2022/12/04 03:51:06;;;;;;;62.60;26.37;;;0.50;1.00;;;;;;6184261;23;20941;-46
2022/12/04 03:53:38;;;;;;;69.10;25.40;;;0.50;1.00;;;;;;6184776;23;20446;-46
2022/12/04 03:56:08;;;;;;;60.97;25.10;;;0.40;1.00;;;;;;6184933;23;20774;-46
2022/12/04 03:58:37;;;;;;;67.30;27.67;;;0.40;1.00;;;;;;6178092;23;20374;-45
2022/12/04 04:01:06;;;;;;;64.60;28.03;;;0.40;1.00;;;;;;6185163;23;20949;-46
2022/12/04 04:03:37;;;;;;;60.20;28.03;;;0.40;1.00;;;;;;6185530;23;20799;-46
2022/12/04 04:06:11;;;;;;;59.70;27.67;;;0.40;1.00;;;;;;6185163;23;20466;-46
2022/12/04 04:08:41;;;;;;;63.03;27.40;;;0.40;1.00;;;;;;6185146;23;20393;-46
2022/12/04 04:11:12;;;;;;;58.10;25.17;;;0.50;1.00;;;;;;6184776;23;20455;-46
2022/12/04 04:25:13;;;;;;;55.87;25.30;;;0.50;1.00;;;;;;6184956;23;20450;-47
2022/12/04 04:27:39;;;;;;;66.03;27.17;;;0.60;1.00;;;;;;6184664;23;20367;-47
2022/12/04 04:30:06;;;;;;;69.03;27.13;;;0.50;1.00;;;;;;6183913;23;20875;-46
2022/12/04 04:32:45;;;;;;;57.73;26.30;;;0.50;1.00;;;;;;6184275;23;20155;-46
2022/12/04 04:35:21;;;;;;;64.90;26.33;;;0.50;1.00;;;;;;6184967;23;20358;-46
2022/12/04 04:38:06;;;;;;;60.97;27.23;;;0.50;1.00;;;;;;6184743;23;20417;-46
2022/12/04 04:40:39;;;;;;;68.47;27.50;;;0.50;1.00;;;;;;6184315;23;21011;-46
2022/12/04 04:43:23;;;;;;;66.60;27.40;;;0.50;1.00;;;;;;6184444;23;20371;-46
2022/12/04 04:46:20;;;;;;;59.80;25.70;;;0.50;1.00;;;;;;6157966;23;20448;-47
2022/12/04 04:48:51;;;;;;;64.50;26.73;;;0.50;1.00;;;;;;6182870;23;20521;-47
2022/12/04 04:51:18;;;;;;;64.13;27.50;;;0.50;1.00;;;;;;6183883;23;20433;-46
2022/12/04 04:53:50;;;;;;;61.97;26.80;;;0.50;1.00;;;;;;6184327;23;20390;-46
2022/12/04 04:56:17;;;;;;;61.43;26.10;;;0.50;1.00;;;;;;6184455;23;20715;-46
2022/12/04 04:58:42;;;;;;;66.73;26.90;;;0.60;1.00;;;;;;6184370;23;20367;-46
2022/12/04 05:01:12;;;;;;;63.27;27.03;;;0.50;1.00;;;;;;6183961;23;20375;-46
2022/12/04 05:03:38;;;;;;;62.63;26.47;;;0.50;1.00;;;;;;6184054;23;20174;-44
2022/12/04 05:06:05;;;;;;;55.53;24.57;;;0.50;1.00;;;;;;6157563;23;20394;-46
2022/12/04 05:08:30;;;;;;;66.13;26.93;;;0.60;1.00;;;;;;6184188;23;20748;-47
2022/12/04 05:10:56;;;;;;;59.63;26.50;;;0.60;1.00;;;;;;6184294;23;20430;-46
2022/12/04 05:13:22;;;;;;;64.60;28.07;;;0.60;1.00;;;;;;6184140;23;20147;-46
2022/12/04 05:15:58;;;;;;;69.07;29.30;;;0.60;1.00;;;;;;6183705;23;20233;-47
2022/12/04 05:18:25;;;;;;;64.17;26.67;;;0.50;1.00;;;;;;6183711;23;20582;-46
2022/12/04 05:20:50;;;;;;;60.93;26.10;;;0.50;1.00;;;;;;6183878;23;20438;-46
2022/12/04 05:23:16;;;;;;;62.60;25.93;;;0.60;44.50;;;;;;6183922;23;20877;-46
2022/12/04 05:25:41;;;;;;;56.20;25.90;;;0.60;1.00;;;;;;6183693;23;20178;-46
2022/12/04 05:28:07;;;;;;;63.67;25.57;;;0.60;38.20;;;;;;6183979;23;20173;-47
2022/12/04 05:30:32;;;;;;;64.20;26.80;;;0.60;10.80;;;;;;6183263;23;20186;-46
2022/12/04 05:32:58;;;;;;;71.37;26.87;;;0.60;4.70;;;;;;6183641;23;20171;-46
2022/12/04 05:35:24;;;;;;;64.60;27.07;;;0.60;1.00;;;;;;6183958;23;20143;-46
2022/12/04 05:37:49;;;;;;;62.43;27.80;;;0.60;1.00;;;;;;6183538;23;20443;-46
2022/12/04 05:40:15;;;;;;;68.20;27.30;;;0.60;14.70;;;;;;6174834;23;20312;-47
2022/12/04 05:42:40;;;;;;;60.67;26.40;;;0.60;28.90;;;;;;6183312;23;20163;-46
2022/12/04 05:45:06;;;;;;;70.50;29.70;;;0.60;62.00;;;;;;6176932;23;20151;-46
2022/12/04 05:47:40;;;;;;;65.70;29.70;;;0.60;87.10;;;;;;6183657;23;20265;-46
2022/12/04 05:50:07;;;;;;;61.10;28.13;;;0.60;99.90;;;;;;6184094;23;20422;-46
2022/12/04 05:52:33;;;;;;;63.60;27.73;;;0.50;99.90;;;;;;6183644;23;20420;-46
2022/12/04 05:54:59;;;;;;;70.23;29.90;;;0.60;99.90;;;;;;6183542;23;20821;-46
2022/12/04 05:57:24;;;;;;;68.73;28.33;;;0.60;79.30;;;;;;6183245;23;20143;-46
2022/12/04 05:59:50;;;;;;;60.73;27.53;;;0.60;79.00;;;;;;6183772;23;20147;-46
2022/12/04 06:02:16;;;;;;;66.57;27.90;;;0.60;63.20;;;;;;6184134;23;20218;-46
2022/12/04 06:04:41;;;;;;;68.07;28.30;;;0.60;83.50;;;;;;6184065;23;20935;-46
2022/12/04 06:07:09;;;;;;;67.23;27.83;;;0.60;84.90;;;;;;6184269;23;20366;-47
2022/12/04 06:09:35;;;;;;;69.47;27.67;;;0.60;99.90;;;;;;6183144;23;20590;-46
2022/12/04 06:12:00;;;;;;;66.40;27.67;;;0.60;99.90;;;;;;6183744;23;20975;-47
2022/12/04 06:14:26;;;;;;;62.13;27.03;;;0.70;93.40;;;;;;6181923;23;20386;-47
2022/12/04 06:16:52;;;;;;;70.67;29.83;;;0.60;85.10;;;;;;6183886;23;20205;-47
2022/12/04 06:19:18;;;;;;;62.90;27.10;;;0.70;99.90;;;;;;6183821;23;20154;-47
2022/12/04 06:21:46;;;;;;;69.30;28.17;;;0.60;96.30;;;;;;6183004;23;20171;-46
2022/12/04 06:24:16;;;;;;;72.13;30.40;;;0.70;90.60;;;;;;6183334;23;20391;-46
2022/12/04 06:26:41;;;;;;;77.30;29.30;;;0.60;97.90;;;;;;6183532;23;20375;-46
2022/12/04 06:29:07;;;;;;;63.07;27.67;;;0.60;99.90;;;;;;6183523;23;20422;-46
2022/12/04 06:31:34;;;;;;;66.77;28.00;;;0.60;99.90;;;;;;6183671;23;20166;-46
2022/12/04 06:34:00;;;;;;;62.53;27.83;;;0.60;99.90;;;;;;6183656;23;20154;-46
2022/12/04 06:36:26;;;;;;;68.53;27.03;;;0.60;99.90;;;;;;6182904;23;20425;-46
2022/12/04 06:38:54;;;;;;;67.70;27.63;;;0.60;99.90;;;;;;6181592;23;20234;-46
2022/12/04 06:41:21;;;;;;;74.37;29.80;;;0.70;99.90;;;;;;6182907;23;20155;-46
2022/12/04 06:43:47;;;;;;;70.57;31.07;;;0.60;99.90;;;;;;6183175;23;20383;-46
2022/12/04 06:46:24;;;;;;;68.00;28.50;;;0.70;99.90;;;;;;6183104;23;20863;-44
2022/12/04 06:48:50;;;;;;;67.73;27.27;;;0.70;99.90;;;;;;6183131;23;20377;-46
2022/12/04 06:51:21;;;;;;;73.17;27.77;;;0.60;99.90;;;;;;6183000;23;20722;-46
2022/12/04 06:53:47;;;;;;;77.67;30.17;;;0.70;99.90;;;;;;6183227;23;20738;-46
2022/12/04 06:56:16;;;;;;;72.40;29.43;;;0.70;99.90;;;;;;6185139;23;20469;-46
2022/12/04 06:58:47;;;;;;;67.47;26.90;;;0.70;99.90;;;;;;6184965;23;20681;-46
2022/12/04 07:01:15;;;;;;;67.70;29.93;;;0.70;99.90;;;;;;6185248;23;20696;-46
2022/12/04 07:03:41;;;;;;;72.07;28.90;;;0.70;99.90;;;;;;6184995;23;20701;-47
2022/12/04 07:06:20;;;;;;;67.33;28.93;;;0.70;99.90;;;;;;6184708;23;20856;-47
2022/12/04 07:08:48;;;;;;;62.73;28.90;;;0.70;99.90;;;;;;6183843;23;20469;-47
2022/12/04 07:11:15;;;;;;;63.67;27.57;;;0.70;99.90;;;;;;6184793;23;20863;-47
2022/12/04 07:13:40;;;;;;;65.17;28.80;;;0.70;99.90;;;;;;6185076;23;20382;-47
2022/12/04 07:16:08;;;;;;;66.70;28.77;;;0.70;99.90;;;;;;6185366;23;20802;-47
2022/12/04 07:18:35;;;;;;;75.60;29.13;;;0.80;99.90;;;;;;6184915;23;20160;-46
2022/12/04 07:21:08;;;;;;;64.00;27.87;;;0.80;99.90;;;;;;6185109;23;20399;-47
2022/12/04 07:23:34;;;;;;;76.97;28.70;;;0.80;99.90;;;;;;6184809;23;20696;-46
2022/12/04 07:26:05;;;;;;;68.87;29.30;;;0.80;99.90;;;;;;6184853;23;20395;-46
2022/12/04 07:28:31;;;;;;;70.67;29.97;;;0.70;99.90;;;;;;6184537;23;20370;-46
2022/12/04 07:30:57;;;;;;;67.07;27.70;;;0.80;99.90;;;;;;6184643;23;20810;-46
2022/12/04 07:33:23;;;;;;;82.03;30.50;;;0.80;99.90;;;;;;6177129;23;20147;-47
2022/12/04 07:35:59;;;;;;;73.60;29.33;;;0.80;99.90;;;;;;6184674;23;20156;-46
2022/12/04 07:38:24;;;;;;;79.40;31.13;;;0.80;99.90;;;;;;6184778;23;20469;-46
2022/12/04 07:40:50;;;;;;;71.73;29.87;;;0.80;99.90;;;;;;6184453;23;20402;-46
2022/12/04 07:43:16;;;;;;;78.30;30.67;;;0.80;99.90;;;;;;6184704;23;20147;-47
2022/12/04 07:45:41;;;;;;;75.00;30.37;;;0.70;99.90;;;;;;6184789;23;20147;-46
2022/12/04 07:48:07;;;;;;;70.27;29.80;;;0.80;1.00;;;;;;6184459;23;20163;-46
2022/12/04 07:50:33;;;;;;;68.27;28.70;;;0.80;1.00;;;;;;6184727;23;20171;-48
2022/12/04 07:52:58;;;;;;;68.80;29.37;;;0.80;1.00;;;;;;6184817;23;20143;-46
2022/12/04 07:55:24;;;;;;;78.17;28.73;;;0.80;1.00;;;;;;6184543;23;20266;-47
2022/12/04 07:57:49;;;;;;;78.70;30.27;;;0.90;1.00;;;;;;6184484;23;20139;-44
2022/12/04 08:00:15;;;;;;;80.77;30.90;;;0.90;1.00;;;;;;6184435;23;20155;-43
2022/12/04 08:02:41;;;;;;;79.43;31.90;;;1.00;1.00;;;;;;6184442;23;20563;-44
2022/12/04 08:05:07;;;;;;;77.33;29.80;;;1.00;1.00;;;;;;6184081;23;20371;-43
2022/12/04 08:07:32;;;;;;;72.20;29.77;;;1.00;99.90;;;;;;6184470;23;20184;-44
2022/12/04 08:09:58;;;;;;;77.17;30.50;;;1.00;99.90;;;;;;6184383;23;20213;-43
2022/12/04 08:12:24;;;;;;;64.70;27.80;;;1.00;99.90;;;;;;6184492;23;20167;-44
2022/12/04 08:14:49;;;;;;;76.27;29.73;;;1.10;99.90;;;;;;6184188;23;20151;-44
2022/12/04 08:17:15;;;;;;;76.03;29.03;;;1.10;99.90;;;;;;6184279;23;20807;-44
2022/12/04 08:19:40;;;;;;;75.30;29.23;;;1.10;99.90;;;;;;6184450;23;20147;-44
2022/12/04 08:22:06;;;;;;;73.00;30.47;;;1.10;99.90;;;;;;6184280;23;20170;-44
2022/12/04 08:24:32;;;;;;;79.70;30.10;;;1.20;99.90;;;;;;6177159;23;20520;-44
2022/12/04 08:26:57;;;;;;;83.67;32.07;;;1.20;99.90;;;;;;6184514;23;20151;-43
2022/12/04 08:29:23;;;;;;;82.67;31.90;;;1.20;99.90;;;;;;6183994;23;20207;-44
2022/12/04 08:31:48;;;;;;;79.03;29.27;;;1.20;99.90;;;;;;6184198;23;20265;-44
2022/12/04 08:34:14;;;;;;;75.37;29.50;;;1.20;99.90;;;;;;6184211;23;20144;-44
2022/12/04 08:36:40;;;;;;;80.07;29.27;;;1.30;99.90;;;;;;6184550;23;20162;-44
2022/12/04 08:39:05;;;;;;;78.63;30.70;;;1.30;99.90;;;;;;6184061;23;20203;-44
2022/12/04 08:41:31;;;;;;;80.40;30.70;;;1.40;99.90;;;;;;6184381;23;20155;-43
2022/12/04 08:43:57;;;;;;;69.63;29.37;;;1.40;98.90;;;;;;6184520;23;20804;-44
2022/12/04 08:46:24;;;;;;;73.80;31.90;;;1.50;48.90;;;;;;6184065;23;20158;-44
2022/12/04 08:48:50;;;;;;;78.73;31.17;;;1.40;25.50;;;;;;6184772;23;20378;-44
2022/12/04 08:51:22;;;;;;;75.00;29.20;;;1.50;57.40;;;;;;6184167;23;20378;-47
2022/12/04 08:53:51;;;;;;;88.70;33.20;;;1.60;37.70;;;;;;6180819;23;20398;-45
2022/12/04 08:56:16;;;;;;;75.10;30.57;;;1.60;33.70;;;;;;6181919;23;20375;-44
2022/12/04 08:58:42;;;;;;;76.80;31.00;;;1.70;1.00;;;;;;6183981;23;20424;-44
2022/12/04 09:01:13;;;;;;;75.03;31.57;;;1.70;1.00;;;;;;6183834;23;20155;-43
2022/12/04 09:03:39;;;;;;;70.50;29.50;;;1.80;1.00;;;;;;6180332;23;20653;-43
2022/12/04 09:06:05;;;;;;;70.07;28.83;;;1.80;1.00;;;;;;6180722;23;20405;-44
2022/12/04 09:08:31;;;;;;;72.10;29.60;;;1.80;1.00;;;;;;6179182;23;20810;-44
2022/12/04 09:11:08;;;;;;;76.43;32.10;;;1.90;1.00;;;;;;6182827;23;20480;-43
2022/12/04 09:13:35;;;;;;;63.00;29.27;;;1.90;1.00;;;;;;6181196;23;20170;-44
2022/12/04 09:16:05;;;;;;;72.70;30.97;;;1.90;1.00;;;;;;6180883;23;20363;-44
2022/12/04 09:18:32;;;;;;;72.00;30.10;;;2.00;1.00;;;;;;6180397;23;20370;-43
2022/12/04 09:20:59;;;;;;;70.77;29.83;;;2.10;1.00;;;;;;6180493;23;20401;-44
2022/12/04 09:23:26;;;;;;;64.70;28.47;;;2.10;1.00;;;;;;6154365;23;20398;-44
2022/12/04 09:25:52;;;;;;;62.83;27.67;;;2.10;99.90;;;;;;6181820;23;20374;-44
2022/12/04 09:28:18;;;;;;;72.43;29.73;;;2.20;99.90;;;;;;6181341;23;20395;-43
2022/12/04 09:30:44;;;;;;;69.70;28.47;;;2.20;99.90;;;;;;6179716;23;20448;-43
2022/12/04 09:33:09;;;;;;;64.23;27.67;;;2.20;99.90;;;;;;6180425;23;20618;-43
2022/12/04 09:35:37;;;;;;;72.90;29.63;;;2.30;99.90;;;;;;6181871;23;20151;-43
2022/12/04 09:38:03;;;;;;;69.30;29.53;;;2.30;99.90;;;;;;6180706;23;20170;-43
2022/12/04 09:40:44;;;;;;;72.67;30.40;;;2.30;99.90;;;;;;6180667;23;20446;-44
2022/12/04 09:43:40;;;;;;;72.10;29.30;;;2.30;99.90;;;;;;6181225;23;20169;-43
2022/12/04 09:46:17;;;;;;;70.30;30.37;;;2.30;99.90;;;;;;6154375;23;20481;-44
2022/12/04 09:48:47;;;;;;;70.63;30.10;;;2.40;99.90;;;;;;6180422;23;20370;-44
2022/12/04 09:51:17;;;;;;;68.67;28.60;;;2.40;99.90;;;;;;6181524;23;20433;-43
2022/12/04 09:53:51;;;;;;;68.30;28.43;;;2.40;99.90;;;;;;6180389;23;20478;-44
2022/12/04 09:56:18;;;;;;;67.30;28.80;;;2.40;99.90;;;;;;6183580;23;20370;-44
2022/12/04 09:59:04;;;;;;;68.47;28.03;;;2.50;99.90;;;;;;6183485;23;20848;-44
2022/12/04 10:01:47;;;;;;;71.07;29.47;;;2.50;99.90;;;;;;6183604;23;20363;-44
2022/12/04 10:04:14;;;;;;;67.07;29.23;;;2.50;99.90;;;;;;6183990;23;20686;-42
2022/12/04 10:07:01;;;;;;;64.53;28.77;;;2.60;99.90;;;;;;6183153;23;20410;-44
2022/12/04 10:09:52;;;;;;;71.50;30.50;;;2.60;99.90;;;;;;6183236;23;20472;-44
2022/12/04 10:12:34;;;;;;;68.90;30.03;;;2.60;99.90;;;;;;6174247;23;20371;-44
2022/12/04 10:15:06;;;;;;;55.10;26.60;;;2.70;99.90;;;;;;6158198;23;20393;-43
2022/12/04 10:17:46;;;;;;;57.60;25.93;;;2.70;99.90;;;;;;6184577;23;20385;-43
2022/12/04 10:20:15;;;;;;;62.67;28.40;;;2.70;99.90;;;;;;6183361;23;20382;-43
2022/12/04 10:23:02;;;;;;;59.23;26.53;;;2.80;99.90;;;;;;6183385;23;20833;-45
2022/12/04 10:25:29;;;;;;;63.40;26.53;;;2.80;99.90;;;;;;6183481;23;21087;-44
2022/12/04 10:28:16;;;;;;;56.80;26.57;;;2.80;99.90;;;;;;6183123;23;20367;-44
2022/12/04 10:30:42;;;;;;;55.20;26.17;;;2.80;99.90;;;;;;6175239;23;20528;-43
2022/12/04 10:33:31;;;;;;;61.07;27.67;;;2.90;99.90;;;;;;6183013;23;20382;-44
2022/12/04 10:35:56;;;;;;;58.13;25.87;;;2.90;99.90;;;;;;6183525;23;20379;-43
2022/12/04 10:38:31;;;;;;;53.23;25.67;;;2.90;99.90;;;;;;6183496;23;20465;-45
2022/12/04 10:41:05;;;;;;;54.80;24.70;;;2.90;99.90;;;;;;6178941;23;20165;-44
2022/12/04 10:43:47;;;;;;;57.10;26.57;;;3.00;99.90;;;;;;6182914;23;20669;-45
2022/12/04 10:46:22;;;;;;;58.97;28.10;;;2.90;99.90;;;;;;6182927;23;20394;-44
2022/12/04 10:48:53;;;;;;;58.10;25.53;;;2.90;99.90;;;;;;6183359;23;20441;-45
2022/12/04 10:51:21;;;;;;;58.13;25.83;;;3.00;99.90;;;;;;6182781;23;20381;-44
2022/12/04 10:53:48;;;;;;;61.10;27.47;;;3.00;99.90;;;;;;6183352;23;20839;-44
2022/12/04 10:56:24;;;;;;;55.90;25.30;;;2.90;99.90;;;;;;6183109;23;20370;-44
2022/12/04 10:58:59;;;;;;;56.47;26.07;;;3.00;99.90;;;;;;6182958;23;20660;-44
2022/12/04 11:01:26;;;;;;;50.93;24.47;;;2.90;99.90;;;;;;6183758;23;20441;-45
2022/12/04 11:04:08;;;;;;;54.50;24.70;;;3.00;99.90;;;;;;6182993;23;20381;-44
2022/12/04 11:06:34;;;;;;;55.83;26.47;;;3.00;99.90;;;;;;6183224;23;20367;-43
2022/12/04 11:09:02;;;;;;;59.43;27.20;;;3.00;99.90;;;;;;6182980;23;20378;-44
2022/12/04 11:11:34;;;;;;;55.17;25.03;;;3.00;99.90;;;;;;6183017;23;20363;-44
2022/12/04 11:14:06;;;;;;;61.30;26.13;;;3.00;99.90;;;;;;6182926;23;20370;-44
2022/12/04 11:16:35;;;;;;;66.30;26.80;;;3.10;99.90;;;;;;6182926;23;20776;-44
2022/12/04 11:19:01;;;;;;;63.87;26.57;;;3.00;99.90;;;;;;6183185;23;20794;-44
2022/12/04 11:21:29;;;;;;;92.47;34.80;;;3.00;99.90;;;;;;6156660;23;20398;-44
2022/12/04 11:23:55;;;;;;;53.40;24.60;;;3.00;99.90;;;;;;6183287;23;20501;-44
2022/12/04 11:26:36;;;;;;;67.97;27.03;;;3.00;99.90;;;;;;6183172;23;20468;-44
2022/12/04 11:29:04;;;;;;;59.67;26.87;;;2.90;99.90;;;;;;6183148;23;20144;-44
2022/12/04 11:31:31;;;;;;;54.57;24.97;;;2.90;99.90;;;;;;6183151;23;20358;-44
2022/12/04 11:34:05;;;;;;;54.43;26.93;;;3.00;99.90;;;;;;6183003;23;20373;-44
2022/12/04 11:36:39;;;;;;;59.70;26.80;;;3.00;99.90;;;;;;6182927;23;20793;-44
2022/12/04 11:39:26;;;;;;;57.70;25.93;;;3.10;99.90;;;;;;6183548;23;20958;-46
2022/12/04 11:42:15;;;;;;;56.53;25.90;;;3.10;99.90;;;;;;6184993;23;20389;-46
2022/12/04 11:45:11;;;;;;;53.73;25.03;;;3.10;99.90;;;;;;6185047;23;20366;-46
2022/12/04 11:47:37;;;;;;;66.10;27.87;;;3.10;99.90;;;;;;6184073;23;20436;-46
2022/12/04 11:50:12;;;;;;;55.63;26.03;;;3.10;99.90;;;;;;6184753;23;20430;-47
2022/12/04 11:52:48;;;;;;;54.20;24.97;;;3.10;99.90;;;;;;6184796;23;20185;-46
2022/12/04 11:55:20;;;;;;;50.90;25.77;;;3.10;99.90;;;;;;6184413;23;20374;-47
2022/12/04 11:58:24;;;;;;;64.77;31.20;;;3.10;99.90;;;;;;6184558;23;20355;-47
2022/12/04 12:01:04;;;;;;;61.40;27.20;;;3.20;99.90;;;;;;6157939;23;20460;-47
2022/12/04 12:03:42;;;;;;;56.00;25.50;;;3.20;99.90;;;;;;6177743;23;20371;-46
2022/12/04 12:06:27;;;;;;;57.57;26.83;;;3.10;99.90;;;;;;6184579;23;20820;-47
2022/12/04 12:09:13;;;;;;;53.10;25.63;;;3.10;99.90;;;;;;6184624;23;20371;-46
2022/12/04 12:11:56;;;;;;;55.67;27.40;;;3.10;99.90;;;;;;6184783;23;20371;-46
2022/12/04 12:14:52;;;;;;;53.17;24.83;;;3.10;99.90;;;;;;6184625;23;20363;-47
2022/12/04 12:17:29;;;;;;;52.80;24.20;;;3.20;99.90;;;;;;6184538;23;20402;-47
2022/12/04 12:20:19;;;;;;;55.63;26.47;;;3.20;99.90;;;;;;6184855;23;20368;-47
2022/12/04 12:22:51;;;;;;;55.97;27.87;;;3.20;99.90;;;;;;6184639;23;20363;-46
2022/12/04 12:25:42;;;;;;;52.50;25.43;;;3.30;99.90;;;;;;6184577;23;20401;-46
2022/12/04 12:28:26;;;;;;;59.20;25.70;;;3.20;99.90;;;;;;6141676;23;20436;-46
2022/12/04 12:31:04;;;;;;;54.20;26.53;;;3.30;99.90;;;;;;6184589;23;20426;-47
2022/12/04 12:33:34;;;;;;;58.77;26.03;;;3.30;99.90;;;;;;6184379;23;20378;-47
2022/12/04 12:36:09;;;;;;;53.70;24.30;;;3.30;99.90;;;;;;6184800;23;20585;-47
2022/12/04 12:38:54;;;;;;;56.13;26.53;;;3.30;99.90;;;;;;6184188;23;20386;-46
2022/12/04 12:41:28;;;;;;;52.30;26.40;;;3.40;99.90;;;;;;6184199;23;20801;-46
2022/12/04 12:44:10;;;;;;;58.43;25.50;;;3.30;95.20;;;;;;6184706;23;20416;-46
2022/12/04 12:46:47;;;;;;;55.53;26.27;;;3.30;99.90;;;;;;6184561;23;20369;-43
2022/12/04 12:49:46;;;;;;;53.00;25.80;;;3.30;99.90;;;;;;6184007;23;20366;-47
2022/12/04 12:52:18;;;;;;;57.33;24.43;;;3.30;99.90;;;;;;6183908;23;20382;-47
2022/12/04 12:55:03;;;;;;;51.43;25.70;;;3.30;99.90;;;;;;6183883;23;20378;-46
2022/12/04 12:57:35;;;;;;;50.30;23.43;;;3.30;99.90;;;;;;6183988;23;20367;-46
2022/12/04 13:00:13;;;;;;;53.53;25.57;;;3.30;99.90;;;;;;6184007;23;20375;-46
2022/12/04 13:02:45;;;;;;;51.50;23.57;;;3.30;99.90;;;;;;6184145;23;20363;-47
2022/12/04 13:05:15;;;;;;;57.50;26.13;;;3.30;99.90;;;;;;6184311;23;20813;-47
2022/12/04 13:08:02;;;;;;;46.90;22.90;;;3.30;99.90;;;;;;6183826;23;20370;-46
2022/12/04 13:10:36;;;;;;;50.30;23.57;;;3.40;99.90;;;;;;6183738;23;20418;-46